Time;durP1;ratioP1;P1;durP2;ratioP2;P2;SDS_P1;SDS_P2;PMS_P1;PMS_P2;Temp;Humidity;BMP_temperature;BMP_pressure;BME280_temperature;BME280_humidity;BME280_pressure;Samples;Min_cycle;Max_cycle;Signal;HPM_P1;HPM_P2
2023/01/07 00:01:04;;;;;;;5.97;5.37;;;;;;;;;;5010988;28;20496;-66
2023/01/07 00:03:29;;;;;;;5.73;5.13;;;;;;;;;;5011744;28;20420;-67
2023/01/07 00:05:59;;;;;;;7.53;5.40;;;;;;;;;;5011741;28;20443;-65
2023/01/07 00:08:24;;;;;;;8.23;5.00;;;;;;;;;;5031488;28;20624;-65
2023/01/07 00:10:50;;;;;;;5.63;5.03;;;;;;;;;;5030651;28;20415;-66
2023/01/07 00:13:15;;;;;;;10.53;7.10;;;;;;;;;;5030712;28;20183;-66
2023/01/07 00:15:41;;;;;;;15.83;5.50;;;;;;;;;;5031502;28;20199;-66
2023/01/07 00:18:06;;;;;;;9.70;5.70;;;;;;;;;;5030793;28;20222;-65
2023/01/07 00:20:31;;;;;;;9.90;6.87;;;;;;;;;;5030451;28;20583;-65
2023/01/07 00:22:57;;;;;;;8.97;6.03;;;;;;;;;;5030831;28;20258;-65
2023/01/07 00:25:22;;;;;;;5.50;4.87;;;;;;;;;;5031114;28;20219;-67
2023/01/07 00:27:48;;;;;;;16.63;5.90;;;;;;;;;;5030576;28;20337;-65
2023/01/07 00:30:13;;;;;;;14.33;5.70;;;;;;;;;;5021832;28;20180;-66
2023/01/07 00:35:22;;;;;;;7.40;5.50;;;;;;;;;;5011240;28;20238;-66
2023/01/07 00:37:52;;;;;;;8.27;5.20;;;;;;;;;;5010966;28;20880;-66
2023/01/07 00:40:17;;;;;;;6.13;5.53;;;;;;;;;;5010914;28;20235;-67
2023/01/07 00:43:03;;;;;;;6.57;5.40;;;;;;;;;;5009728;28;20479;-68
2023/01/07 00:45:38;;;;;;;9.40;5.60;;;;;;;;;;5010768;28;20192;-66
2023/01/07 00:48:04;;;;;;;5.53;5.03;;;;;;;;;;5010288;28;20808;-69
2023/01/07 00:50:33;;;;;;;7.07;5.30;;;;;;;;;;4992414;28;20593;-67
2023/01/07 00:52:58;;;;;;;10.93;5.40;;;;;;;;;;5010598;28;20259;-67
2023/01/07 00:55:24;;;;;;;7.13;5.57;;;;;;;;;;5010561;28;20558;-67
2023/01/07 00:57:50;;;;;;;9.27;5.57;;;;;;;;;;5010100;28;20198;-66
2023/01/07 01:00:18;;;;;;;6.40;5.80;;;;;;;;;;5010393;28;20403;-65
2023/01/07 01:02:43;;;;;;;10.53;5.60;;;;;;;;;;5009767;28;20260;-66
2023/01/07 01:05:09;;;;;;;8.60;5.20;;;;;;;;;;5010525;28;20871;-66
2023/01/07 01:07:35;;;;;;;8.43;5.70;;;;;;;;;;5024539;28;20195;-66
2023/01/07 01:10:03;;;;;;;6.47;5.87;;;;;;;;;;5030403;28;20774;-66
2023/01/07 01:12:28;;;;;;;7.20;6.17;;;;;;;;;;5029527;28;20410;-65
2023/01/07 01:14:54;;;;;;;10.83;5.97;;;;;;;;;;5029672;28;20461;-65
2023/01/07 01:17:21;;;;;;;7.60;6.57;;;;;;;;;;5029868;28;20167;-68
2023/01/07 01:19:46;;;;;;;6.90;6.20;;;;;;;;;;5030100;28;20265;-67
2023/01/07 01:22:12;;;;;;;7.33;6.43;;;;;;;;;;5029086;28;20414;-67
2023/01/07 01:24:37;;;;;;;6.40;5.80;;;;;;;;;;5029903;28;20199;-65
2023/01/07 01:27:03;;;;;;;7.77;6.50;;;;;;;;;;5029860;28;20648;-66
2023/01/07 01:29:28;;;;;;;11.07;6.40;;;;;;;;;;5027014;28;20171;-66
2023/01/07 01:31:54;;;;;;;8.60;6.10;;;;;;;;;;5009089;28;20183;-66
2023/01/07 01:34:19;;;;;;;7.17;6.30;;;;;;;;;;5010092;28;20179;-66
2023/01/07 01:36:44;;;;;;;8.23;5.77;;;;;;;;;;5010142;28;20556;-67
2023/01/07 01:39:10;;;;;;;7.40;6.70;;;;;;;;;;5009760;28;20703;-67
2023/01/07 01:41:36;;;;;;;7.70;6.90;;;;;;;;;;5009310;28;20180;-67
2023/01/07 01:44:02;;;;;;;9.93;6.13;;;;;;;;;;5009344;28;20674;-67
2023/01/07 01:46:40;;;;;;;10.53;7.63;;;;;;;;;;5009413;28;20192;-68
2023/01/07 01:49:35;;;;;;;6.57;5.97;;;;;;;;;;5010008;28;20411;-68
2023/01/07 01:52:11;;;;;;;9.63;6.13;;;;;;;;;;5009280;28;20784;-67
2023/01/07 01:54:40;;;;;;;6.90;6.20;;;;;;;;;;5009891;28;21079;-67
2023/01/07 01:57:07;;;;;;;8.23;6.63;;;;;;;;;;5009886;28;20422;-67
2023/01/07 01:59:38;;;;;;;8.00;6.67;;;;;;;;;;5012883;28;20552;-67
2023/01/07 02:02:05;;;;;;;7.50;6.80;;;;;;;;;;5029892;28;20497;-67
2023/01/07 02:04:32;;;;;;;9.90;7.23;;;;;;;;;;5034397;28;20524;-67
2023/01/07 02:07:10;;;;;;;11.37;8.23;;;;;;;;;;5024907;28;20446;-67
2023/01/07 02:09:35;;;;;;;12.93;7.03;;;;;;;;;;4996182;28;20728;-66
2023/01/07 02:12:22;;;;;;;11.50;7.80;;;;;;;;;;5013557;28;20435;-67
2023/01/07 02:15:00;;;;;;;12.20;7.73;;;;;;;;;;5013315;28;20524;-65
2023/01/07 02:17:43;;;;;;;8.27;6.50;;;;;;;;;;5013543;28;20537;-66
2023/01/07 02:20:21;;;;;;;7.67;6.73;;;;;;;;;;5013958;28;20415;-66
2023/01/07 02:23:13;;;;;;;8.10;6.77;;;;;;;;;;5012836;28;20847;-66
2023/01/07 02:26:11;;;;;;;9.13;7.00;;;;;;;;;;5013688;28;20426;-66
2023/01/07 02:29:05;;;;;;;7.33;6.57;;;;;;;;;;4977094;28;20485;-66
2023/01/07 02:32:03;;;;;;;8.30;7.23;;;;;;;;;;5012315;28;20470;-67
2023/01/07 02:34:37;;;;;;;9.20;6.47;;;;;;;;;;5013411;28;20540;-68
2023/01/07 02:37:08;;;;;;;14.43;8.33;;;;;;;;;;5013410;28;20427;-67
2023/01/07 02:39:52;;;;;;;10.00;7.00;;;;;;;;;;5013308;28;21082;-65
2023/01/07 02:42:56;;;;;;;22.73;8.63;;;;;;;;;;5012790;28;20942;-66
2023/01/07 02:45:28;;;;;;;8.80;7.90;;;;;;;;;;5013306;28;20426;-67
2023/01/07 02:47:56;;;;;;;11.73;7.10;;;;;;;;;;5012852;28;20411;-68
2023/01/07 02:50:22;;;;;;;8.33;6.97;;;;;;;;;;5012971;28;20450;-68
2023/01/07 02:52:47;;;;;;;7.80;7.10;;;;;;;;;;5012640;28;20442;-67
2023/01/07 02:55:20;;;;;;;8.33;7.43;;;;;;;;;;4995520;28;20691;-69
2023/01/07 02:57:54;;;;;;;13.63;7.00;;;;;;;;;;5012656;28;20176;-69
2023/01/07 03:00:32;;;;;;;8.03;7.23;;;;;;;;;;5012828;28;20410;-68
2023/01/07 03:03:35;;;;;;;8.53;6.87;;;;;;;;;;5012908;28;20436;-67
2023/01/07 03:06:29;;;;;;;9.73;8.00;;;;;;;;;;5013924;28;20493;-69
2023/01/07 03:09:03;;;;;;;8.20;7.40;;;;;;;;;;5032669;28;20739;-67
2023/01/07 03:11:40;;;;;;;9.03;8.23;;;;;;;;;;5032129;28;20732;-67
2023/01/07 03:14:17;;;;;;;9.13;8.23;;;;;;;;;;5032088;28;20426;-69
2023/01/07 03:16:48;;;;;;;10.13;8.33;;;;;;;;;;5032077;28;20441;-67
2023/01/07 03:19:17;;;;;;;11.30;7.93;;;;;;;;;;5032108;28;20466;-68
2023/01/07 03:21:45;;;;;;;8.17;7.37;;;;;;;;;;5031388;28;20883;-67
2023/01/07 03:24:10;;;;;;;10.10;8.07;;;;;;;;;;5032239;28;20453;-67
2023/01/07 03:26:46;;;;;;;11.30;8.27;;;;;;;;;;5032552;28;20866;-68
2023/01/07 03:29:13;;;;;;;10.40;8.57;;;;;;;;;;5031518;28;20183;-69
2023/01/07 03:31:45;;;;;;;10.43;9.20;;;;;;;;;;5011369;28;20415;-68
2023/01/07 03:34:16;;;;;;;9.23;8.23;;;;;;;;;;5012240;28;20434;-68
2023/01/07 03:36:48;;;;;;;10.33;9.00;;;;;;;;;;5012258;28;20851;-67
2023/01/07 03:39:14;;;;;;;9.27;7.87;;;;;;;;;;5012082;28;20454;-68
2023/01/07 03:44:24;;;;;;;9.70;8.30;;;;;;;;;;5011736;28;20418;-68
2023/01/07 03:46:50;;;;;;;9.43;8.27;;;;;;;;;;5011609;28;20465;-67
2023/01/07 03:49:16;;;;;;;9.43;8.50;;;;;;;;;;5011943;28;20244;-65
2023/01/07 03:51:41;;;;;;;14.67;9.00;;;;;;;;;;5011348;28;21013;-66
2023/01/07 03:54:07;;;;;;;12.40;9.00;;;;;;;;;;5011681;28;20633;-66
2023/01/07 03:56:33;;;;;;;9.97;8.60;;;;;;;;;;5011636;28;20191;-66
2023/01/07 03:58:58;;;;;;;9.10;8.20;;;;;;;;;;5011303;28;21017;-67
2023/01/07 04:01:24;;;;;;;9.80;8.80;;;;;;;;;;5010538;28;20180;-68
2023/01/07 04:03:49;;;;;;;9.57;8.10;;;;;;;;;;5011899;28;20191;-66
2023/01/07 04:06:14;;;;;;;9.43;8.43;;;;;;;;;;5014633;28;20215;-67
2023/01/07 04:08:40;;;;;;;10.30;9.10;;;;;;;;;;5031636;28;20260;-67
2023/01/07 04:11:05;;;;;;;10.20;8.90;;;;;;;;;;5030396;28;20183;-67
2023/01/07 04:13:31;;;;;;;13.37;8.97;;;;;;;;;;5030978;28;20178;-67
2023/01/07 04:15:56;;;;;;;9.87;8.90;;;;;;;;;;5031558;28;20202;-67
2023/01/07 04:18:21;;;;;;;9.00;8.10;;;;;;;;;;5030657;28;20191;-66
2023/01/07 04:20:47;;;;;;;9.20;8.30;;;;;;;;;;5030098;28;20505;-66
2023/01/07 04:23:14;;;;;;;10.07;8.53;;;;;;;;;;5031275;28;20172;-66
2023/01/07 04:25:40;;;;;;;11.13;8.77;;;;;;;;;;5031507;28;20193;-66
2023/01/07 04:28:05;;;;;;;9.80;8.80;;;;;;;;;;5030956;28;20406;-65
2023/01/07 04:30:32;;;;;;;10.80;9.60;;;;;;;;;;5019138;28;20614;-65
2023/01/07 04:32:58;;;;;;;10.60;8.67;;;;;;;;;;5010609;28;20214;-65
2023/01/07 04:35:23;;;;;;;10.27;9.20;;;;;;;;;;5011162;28;20442;-68
2023/01/07 04:37:48;;;;;;;9.57;7.97;;;;;;;;;;5010927;28;20415;-66
2023/01/07 04:40:15;;;;;;;9.20;7.77;;;;;;;;;;5010783;28;20246;-66
2023/01/07 04:42:40;;;;;;;9.67;8.50;;;;;;;;;;5010177;28;20168;-66
2023/01/07 04:45:06;;;;;;;9.93;8.77;;;;;;;;;;5011408;28;20911;-67
2023/01/07 04:47:31;;;;;;;11.70;9.67;;;;;;;;;;5011577;28;20251;-67
2023/01/07 04:49:57;;;;;;;8.37;7.47;;;;;;;;;;5011711;28;21182;-67
2023/01/07 04:52:22;;;;;;;11.20;7.97;;;;;;;;;;5011009;28;20441;-66
2023/01/07 04:54:48;;;;;;;9.30;7.80;;;;;;;;;;5011360;28;20249;-67
2023/01/07 04:57:13;;;;;;;9.53;8.53;;;;;;;;;;5011576;28;20180;-67
2023/01/07 04:59:38;;;;;;;8.70;7.33;;;;;;;;;;5010647;28;20777;-68
2023/01/07 05:02:04;;;;;;;9.47;7.80;;;;;;;;;;5015630;28;20187;-67
2023/01/07 05:04:29;;;;;;;9.57;8.20;;;;;;;;;;5009225;28;20177;-67
2023/01/07 05:06:54;;;;;;;8.70;7.20;;;;;;;;;;5018259;28;20584;-67
2023/01/07 05:09:20;;;;;;;11.33;8.30;;;;;;;;;;5030368;28;20167;-67
2023/01/07 05:11:45;;;;;;;10.27;8.07;;;;;;;;;;5029553;28;20495;-67
2023/01/07 05:14:12;;;;;;;10.43;8.43;;;;;;;;;;5029882;28;20185;-67
2023/01/07 05:16:37;;;;;;;8.70;7.80;;;;;;;;;;5029677;28;20310;-68
2023/01/07 05:19:03;;;;;;;11.03;7.50;;;;;;;;;;5030107;28;20553;-66
2023/01/07 05:21:28;;;;;;;9.20;7.40;;;;;;;;;;5029730;28;20255;-66
2023/01/07 05:23:53;;;;;;;9.20;7.90;;;;;;;;;;5030262;28;20172;-66
2023/01/07 05:26:19;;;;;;;8.70;7.80;;;;;;;;;;5029930;28;20195;-66
2023/01/07 05:28:44;;;;;;;9.63;7.73;;;;;;;;;;5029722;28;20174;-66
2023/01/07 05:31:10;;;;;;;9.33;7.43;;;;;;;;;;5028963;28;20202;-66
2023/01/07 05:33:35;;;;;;;10.13;8.50;;;;;;;;;;5026240;28;20184;-67
2023/01/07 05:36:00;;;;;;;10.83;8.73;;;;;;;;;;5022447;28;20195;-65
2023/01/07 05:38:26;;;;;;;10.87;7.70;;;;;;;;;;5029943;28;20540;-67
2023/01/07 05:40:51;;;;;;;8.43;7.63;;;;;;;;;;5029014;28;20199;-66
2023/01/07 05:43:17;;;;;;;9.90;7.80;;;;;;;;;;5029551;28;20245;-67
2023/01/07 05:45:44;;;;;;;9.77;8.77;;;;;;;;;;5030014;28;20191;-67
2023/01/07 05:48:10;;;;;;;9.93;7.90;;;;;;;;;;5029655;28;20187;-67
2023/01/07 05:50:36;;;;;;;9.30;7.83;;;;;;;;;;5029467;28;20890;-65
2023/01/07 05:53:01;;;;;;;8.67;7.87;;;;;;;;;;5028838;28;20438;-66
2023/01/07 05:55:26;;;;;;;8.87;7.87;;;;;;;;;;5025913;28;20199;-66
2023/01/07 05:57:52;;;;;;;8.80;7.90;;;;;;;;;;5028904;28;20267;-66
2023/01/07 06:00:17;;;;;;;9.87;8.87;;;;;;;;;;5028221;28;20194;-66
2023/01/07 06:02:43;;;;;;;9.70;7.83;;;;;;;;;;5027454;28;21712;-66
2023/01/07 06:05:09;;;;;;;9.80;7.47;;;;;;;;;;5029075;28;20211;-65
2023/01/07 06:07:35;;;;;;;11.07;8.77;;;;;;;;;;5027420;28;20213;-66
2023/01/07 06:10:00;;;;;;;10.33;9.00;;;;;;;;;;5028055;28;20195;-65
2023/01/07 06:12:26;;;;;;;12.47;8.50;;;;;;;;;;5027790;28;20187;-66
2023/01/07 06:14:51;;;;;;;9.10;8.00;;;;;;;;;;5028658;28;20211;-66
2023/01/07 06:17:16;;;;;;;9.67;8.67;;;;;;;;;;5028945;28;20187;-66
2023/01/07 06:19:42;;;;;;;11.27;8.67;;;;;;;;;;5028770;28;20203;-66
2023/01/07 06:22:07;;;;;;;9.10;8.20;;;;;;;;;;5027824;28;20195;-65
2023/01/07 06:24:33;;;;;;;8.80;7.50;;;;;;;;;;5028687;28;20211;-65
2023/01/07 06:26:58;;;;;;;15.00;9.13;;;;;;;;;;5028966;28;20298;-66
2023/01/07 06:29:23;;;;;;;8.77;7.87;;;;;;;;;;5026871;28;20184;-67
2023/01/07 06:31:49;;;;;;;10.10;7.50;;;;;;;;;;5027587;28;20258;-65
2023/01/07 06:34:14;;;;;;;9.20;8.30;;;;;;;;;;5028789;28;20246;-67
2023/01/07 06:36:40;;;;;;;11.33;8.37;;;;;;;;;;5028038;28;20600;-66
2023/01/07 06:39:05;;;;;;;11.00;8.40;;;;;;;;;;5025288;28;20203;-66
2023/01/07 06:41:30;;;;;;;7.93;7.13;;;;;;;;;;5025017;28;20214;-66
2023/01/07 06:43:56;;;;;;;27.60;8.77;;;;;;;;;;5024255;28;20234;-67
2023/01/07 06:46:21;;;;;;;36.07;10.80;;;;;;;;;;5031018;28;20195;-67
2023/01/07 06:48:47;;;;;;;8.40;7.17;;;;;;;;;;5028925;28;20235;-68
2023/01/07 06:51:12;;;;;;;9.57;7.63;;;;;;;;;;5029578;28;20321;-67
2023/01/07 06:53:38;;;;;;;18.73;7.67;;;;;;;;;;5023773;28;20272;-67
2023/01/07 06:56:03;;;;;;;6.30;5.43;;;;;;;;;;5026490;28;20196;-66
2023/01/07 06:58:29;;;;;;;16.80;7.53;;;;;;;;;;5030406;28;20206;-66
2023/01/07 07:00:54;;;;;;;26.40;8.90;;;;;;;;;;5012710;28;20172;-65
2023/01/07 07:03:19;;;;;;;9.73;6.70;;;;;;;;;;5011923;28;20173;-66
2023/01/07 07:05:45;;;;;;;29.33;8.33;;;;;;;;;;5012795;28;20230;-65
2023/01/07 07:08:11;;;;;;;15.73;7.20;;;;;;;;;;5031519;28;20179;-65
2023/01/07 07:10:36;;;;;;;56.30;10.70;;;;;;;;;;5029187;28;20172;-66
2023/01/07 07:13:02;;;;;;;42.03;10.53;;;;;;;;;;5012521;28;20177;-66
2023/01/07 07:15:27;;;;;;;24.27;8.03;;;;;;;;;;5013355;28;20653;-64
2023/01/07 07:17:53;;;;;;;9.27;6.43;;;;;;;;;;5012175;28;20176;-66
2023/01/07 07:20:18;;;;;;;5.73;5.23;;;;;;;;;;5012512;28;20249;-66
2023/01/07 07:22:47;;;;;;;7.73;5.93;;;;;;;;;;5012053;28;20176;-66
2023/01/07 07:25:13;;;;;;;7.90;5.70;;;;;;;;;;5012751;28;20282;-65
2023/01/07 07:27:39;;;;;;;11.03;6.27;;;;;;;;;;5012452;28;20502;-66
2023/01/07 07:30:05;;;;;;;7.43;6.73;;;;;;;;;;5019299;28;20262;-66
2023/01/07 07:32:30;;;;;;;6.80;6.10;;;;;;;;;;5031135;28;20179;-64
2023/01/07 07:34:56;;;;;;;6.87;6.17;;;;;;;;;;5032025;28;20417;-65
2023/01/07 07:37:21;;;;;;;11.20;9.10;;;;;;;;;;5032099;28;20171;-65
2023/01/07 07:39:47;;;;;;;7.93;6.70;;;;;;;;;;5031793;28;20290;-66
2023/01/07 07:42:12;;;;;;;10.97;7.07;;;;;;;;;;5031134;28;20171;-63
2023/01/07 07:44:38;;;;;;;9.43;8.53;;;;;;;;;;5031345;28;20191;-66
2023/01/07 07:47:03;;;;;;;7.90;6.23;;;;;;;;;;5030342;28;20664;-66
2023/01/07 07:49:28;;;;;;;6.20;5.60;;;;;;;;;;5012235;28;20251;-65
2023/01/07 07:51:54;;;;;;;39.57;9.20;;;;;;;;;;5031173;28;20179;-65
2023/01/07 07:54:19;;;;;;;21.00;7.63;;;;;;;;;;5031556;28;20202;-65
2023/01/07 07:56:45;;;;;;;11.20;5.50;;;;;;;;;;5030756;28;20206;-66
2023/01/07 07:59:10;;;;;;;9.03;5.53;;;;;;;;;;5031049;28;20253;-65
2023/01/07 08:01:36;;;;;;;103.73;15.53;;;;;;;;;;5030730;28;20184;-66
2023/01/07 08:04:01;;;;;;;87.67;13.00;;;;;;;;;;5031517;28;20163;-65
2023/01/07 08:06:27;;;;;;;19.03;6.17;;;;;;;;;;5031264;28;20278;-64
2023/01/07 08:08:52;;;;;;;18.93;6.57;;;;;;;;;;5031646;28;20179;-68
2023/01/07 08:11:17;;;;;;;6.57;5.87;;;;;;;;;;5030892;28;20609;-65
2023/01/07 08:13:43;;;;;;;5.70;5.20;;;;;;;;;;5030628;28;20217;-66
2023/01/07 08:16:09;;;;;;;5.37;4.87;;;;;;;;;;5029799;28;20218;-66
2023/01/07 08:18:34;;;;;;;5.70;4.63;;;;;;;;;;5029962;28;20207;-66
2023/01/07 08:21:00;;;;;;;4.97;4.47;;;;;;;;;;5022082;28;20176;-67
2023/01/07 08:23:26;;;;;;;10.80;7.13;;;;;;;;;;5031221;28;20186;-67
2023/01/07 08:25:52;;;;;;;276.60;30.63;;;;;;;;;;5030916;28;20210;-66
2023/01/07 08:28:17;;;;;;;26.30;7.20;;;;;;;;;;5029640;28;20788;-65
2023/01/07 08:30:43;;;;;;;7.47;5.23;;;;;;;;;;5027554;28;20198;-65
2023/01/07 08:33:09;;;;;;;7.03;5.03;;;;;;;;;;5030703;28;20171;-66
2023/01/07 08:35:35;;;;;;;194.17;24.63;;;;;;;;;;5029778;28;20235;-66
2023/01/07 08:38:06;;;;;;;48.17;9.27;;;;;;;;;;5022664;28;20527;-65
2023/01/07 08:40:32;;;;;;;23.27;7.87;;;;;;;;;;5010119;28;20172;-66
2023/01/07 08:43:01;;;;;;;24.77;5.40;;;;;;;;;;5010536;28;20907;-66
2023/01/07 08:45:27;;;;;;;18.70;7.20;;;;;;;;;;5013986;28;20285;-67
2023/01/07 08:47:56;;;;;;;19.63;5.50;;;;;;;;;;5021761;28;20513;-67
2023/01/07 08:50:27;;;;;;;9.93;3.93;;;;;;;;;;5030570;28;20410;-65
2023/01/07 08:52:52;;;;;;;19.03;5.20;;;;;;;;;;5030653;28;20821;-66
2023/01/07 08:55:18;;;;;;;36.83;7.67;;;;;;;;;;5029815;28;20543;-67
2023/01/07 08:57:44;;;;;;;5.80;3.60;;;;;;;;;;5030508;28;20167;-66
2023/01/07 09:00:10;;;;;;;40.00;6.40;;;;;;;;;;5028668;28;20261;-68
2023/01/07 09:02:35;;;;;;;13.30;5.50;;;;;;;;;;5029143;28;20179;-66
2023/01/07 09:05:01;;;;;;;20.90;4.97;;;;;;;;;;5030042;28;20412;-67
2023/01/07 09:07:26;;;;;;;33.90;6.00;;;;;;;;;;5017125;28;20164;-67
2023/01/07 09:09:51;;;;;;;10.20;4.20;;;;;;;;;;5010519;28;20172;-67
2023/01/07 09:12:17;;;;;;;155.47;16.57;;;;;;;;;;5009719;28;20569;-66
2023/01/07 09:14:42;;;;;;;233.67;28.00;;;;;;;;;;5009761;28;20258;-66
2023/01/07 09:17:08;;;;;;;58.47;9.63;;;;;;;;;;5027506;28;20643;-68
2023/01/07 09:19:33;;;;;;;107.23;16.00;;;;;;;;;;5016011;28;20633;-66
2023/01/07 09:21:59;;;;;;;35.17;7.40;;;;;;;;;;5009639;28;20176;-66
2023/01/07 09:24:24;;;;;;;9.20;4.10;;;;;;;;;;5017247;28;20183;-66
2023/01/07 09:26:49;;;;;;;6.33;4.47;;;;;;;;;;5021693;28;20199;-66
2023/01/07 09:29:15;;;;;;;4.63;4.13;;;;;;;;;;5028709;28;20171;-65
2023/01/07 09:31:40;;;;;;;7.37;4.10;;;;;;;;;;5009392;28;20587;-65
2023/01/07 09:34:06;;;;;;;13.03;5.93;;;;;;;;;;5010845;28;20200;-65
2023/01/07 09:36:32;;;;;;;4.73;4.20;;;;;;;;;;5010619;28;20268;-67
2023/01/07 09:38:57;;;;;;;4.90;3.80;;;;;;;;;;5023550;28;20211;-65
2023/01/07 09:41:52;;;;;;;6.23;4.17;;;;;;;;;;5021825;28;20403;-66
2023/01/07 09:44:46;;;;;;;13.40;6.10;;;;;;;;;;5029164;28;20245;-67
2023/01/07 09:47:15;;;;;;;4.10;3.70;;;;;;;;;;5014099;28;20536;-67
2023/01/07 09:49:41;;;;;;;4.50;3.90;;;;;;;;;;5029381;28;20430;-66
2023/01/07 09:52:12;;;;;;;12.80;4.87;;;;;;;;;;5019129;28;20434;-66
2023/01/07 09:54:39;;;;;;;3.80;3.43;;;;;;;;;;5011041;28;20498;-65
2023/01/07 09:57:05;;;;;;;6.00;4.93;;;;;;;;;;5018312;28;20945;-67
2023/01/07 09:59:31;;;;;;;68.70;12.07;;;;;;;;;;5010641;28;20547;-67
2023/01/07 10:02:11;;;;;;;27.83;7.47;;;;;;;;;;5019055;28;20553;-67
2023/01/07 10:04:48;;;;;;;46.73;11.00;;;;;;;;;;5024067;28;20187;-67
2023/01/07 10:07:27;;;;;;;11.37;4.87;;;;;;;;;;5010585;28;20927;-68
2023/01/07 10:09:53;;;;;;;12.70;5.43;;;;;;;;;;5013500;28;20443;-67
2023/01/07 10:12:27;;;;;;;8.10;4.27;;;;;;;;;;5024792;28;20501;-66
2023/01/07 10:15:04;;;;;;;4.10;3.57;;;;;;;;;;5028965;28;20568;-68
2023/01/07 10:17:41;;;;;;;4.50;4.10;;;;;;;;;;5028787;28;20410;-68
2023/01/07 10:20:24;;;;;;;79.97;12.13;;;;;;;;;;5032205;28;20498;-68
2023/01/07 10:22:55;;;;;;;5.47;3.80;;;;;;;;;;5032903;28;20867;-68
2023/01/07 10:25:26;;;;;;;20.73;6.10;;;;;;;;;;5032839;28;20488;-69
2023/01/07 10:27:53;;;;;;;30.37;6.53;;;;;;;;;;5032971;28;20453;-68
2023/01/07 10:30:23;;;;;;;20.53;5.50;;;;;;;;;;5023117;28;20418;-68
2023/01/07 10:32:58;;;;;;;76.13;9.90;;;;;;;;;;5013138;28;20407;-68
2023/01/07 10:35:29;;;;;;;13.67;4.70;;;;;;;;;;5012900;28;20602;-65
2023/01/07 10:37:57;;;;;;;19.43;5.47;;;;;;;;;;5013270;28;20888;-65
2023/01/07 10:40:38;;;;;;;59.77;9.77;;;;;;;;;;5012916;28;20467;-67
2023/01/07 10:43:28;;;;;;;26.50;6.70;;;;;;;;;;5027622;28;20861;-66
2023/01/07 10:46:25;;;;;;;17.53;5.53;;;;;;;;;;5028902;28;20437;-65
2023/01/07 10:49:19;;;;;;;31.63;7.57;;;;;;;;;;5031816;28;20437;-67
2023/01/07 10:51:51;;;;;;;17.00;5.00;;;;;;;;;;5005730;28;20433;-67
2023/01/07 10:54:20;;;;;;;5.03;3.87;;;;;;;;;;5032638;28;20406;-65
2023/01/07 10:56:57;;;;;;;3.60;3.17;;;;;;;;;;5032454;28;20495;-64
2023/01/07 10:59:23;;;;;;;3.87;3.50;;;;;;;;;;5027239;28;20469;-65
2023/01/07 11:01:57;;;;;;;7.47;3.93;;;;;;;;;;5023488;28;20442;-65
2023/01/07 11:04:23;;;;;;;5.07;3.40;;;;;;;;;;5027165;28;20430;-65
2023/01/07 11:07:19;;;;;;;4.60;3.70;;;;;;;;;;5027078;28;20466;-65
2023/01/07 11:09:46;;;;;;;6.40;3.57;;;;;;;;;;5028230;28;20171;-64
2023/01/07 11:12:36;;;;;;;4.17;3.33;;;;;;;;;;5027812;28;20795;-65
2023/01/07 11:15:05;;;;;;;11.87;3.87;;;;;;;;;;5031308;28;20410;-66
2023/01/07 11:17:37;;;;;;;22.70;5.37;;;;;;;;;;5011829;28;20423;-66
2023/01/07 11:20:04;;;;;;;39.53;6.80;;;;;;;;;;5012281;28;20458;-65
2023/01/07 11:22:33;;;;;;;48.30;8.97;;;;;;;;;;5011709;28;20407;-65
2023/01/07 11:25:00;;;;;;;33.47;8.17;;;;;;;;;;5023802;28;20489;-66
2023/01/07 11:27:29;;;;;;;32.60;9.20;;;;;;;;;;5023828;28;20410;-65
2023/01/07 11:30:19;;;;;;;48.30;8.10;;;;;;;;;;5022574;28;20431;-66
2023/01/07 11:33:11;;;;;;;60.03;13.07;;;;;;;;;;5030749;28;20552;-65
2023/01/07 11:35:39;;;;;;;20.93;5.10;;;;;;;;;;4993421;28;20817;-66
2023/01/07 11:38:28;;;;;;;42.53;8.60;;;;;;;;;;5026631;28;20522;-66
2023/01/07 11:40:59;;;;;;;23.30;6.07;;;;;;;;;;5021754;28;20479;-67
2023/01/07 11:43:36;;;;;;;7.20;5.00;;;;;;;;;;5029817;28;20414;-65
2023/01/07 11:46:05;;;;;;;30.30;7.50;;;;;;;;;;5027641;28;20438;-64
2023/01/07 11:48:32;;;;;;;37.47;7.00;;;;;;;;;;5011168;28;20438;-66
2023/01/07 11:50:58;;;;;;;16.30;5.40;;;;;;;;;;5027193;28;20502;-66
2023/01/07 11:53:43;;;;;;;39.23;10.00;;;;;;;;;;5026139;28;20964;-67
2023/01/07 11:56:12;;;;;;;9.40;5.50;;;;;;;;;;5029799;28;20914;-66
2023/01/07 11:58:41;;;;;;;4.50;4.10;;;;;;;;;;5030082;28;20866;-66
2023/01/07 12:01:06;;;;;;;20.90;5.50;;;;;;;;;;5021937;28;20421;-67
2023/01/07 12:03:31;;;;;;;14.67;5.17;;;;;;;;;;5030762;28;20406;-65
2023/01/07 12:06:06;;;;;;;8.93;5.33;;;;;;;;;;5030078;28;20281;-66
2023/01/07 12:08:31;;;;;;;9.27;5.23;;;;;;;;;;5011373;28;20261;-66
2023/01/07 12:11:01;;;;;;;38.77;11.00;;;;;;;;;;5010446;28;20415;-65
2023/01/07 12:13:27;;;;;;;76.97;13.90;;;;;;;;;;5010809;28;20191;-66
2023/01/07 12:15:54;;;;;;;33.53;8.03;;;;;;;;;;5020682;28;20823;-66
2023/01/07 12:18:58;;;;;;;10.17;5.60;;;;;;;;;;5030498;28;20210;-67
2023/01/07 12:21:31;;;;;;;18.70;6.13;;;;;;;;;;5030295;28;20413;-66
2023/01/07 12:24:11;;;;;;;33.97;8.90;;;;;;;;;;5012991;28;20418;-66
2023/01/07 12:26:59;;;;;;;32.53;6.77;;;;;;;;;;5009156;28;20797;-66
2023/01/07 12:29:52;;;;;;;17.60;5.90;;;;;;;;;;5021017;28;20745;-64
2023/01/07 12:32:20;;;;;;;18.63;7.03;;;;;;;;;;5025378;28;20422;-65
2023/01/07 12:35:09;;;;;;;20.17;5.57;;;;;;;;;;5021388;28;20411;-64
2023/01/07 12:37:48;;;;;;;12.23;5.57;;;;;;;;;;5028993;28;20431;-63
2023/01/07 12:40:17;;;;;;;15.70;7.07;;;;;;;;;;5023460;28;20451;-65
2023/01/07 12:42:56;;;;;;;7.13;6.03;;;;;;;;;;5015291;28;20411;-65
2023/01/07 12:45:32;;;;;;;6.77;6.17;;;;;;;;;;5029994;28;20441;-67
2023/01/07 12:48:02;;;;;;;13.93;7.17;;;;;;;;;;5021806;28;20756;-65
2023/01/07 12:50:33;;;;;;;55.00;11.07;;;;;;;;;;5030025;28;21169;-66
2023/01/07 12:53:07;;;;;;;60.50;12.70;;;;;;;;;;5030134;28;20406;-66
2023/01/07 12:56:01;;;;;;;43.37;12.97;;;;;;;;;;5030672;28;20422;-67
2023/01/07 12:58:49;;;;;;;10.60;7.23;;;;;;;;;;5028271;28;20422;-65
2023/01/07 13:01:14;;;;;;;21.30;7.60;;;;;;;;;;5029230;28;20461;-65
2023/01/07 13:04:00;;;;;;;36.37;9.67;;;;;;;;;;5030432;28;20479;-66
2023/01/07 13:06:35;;;;;;;14.23;6.90;;;;;;;;;;5025749;28;20196;-66
2023/01/07 13:09:15;;;;;;;11.90;7.43;;;;;;;;;;5010698;28;20444;-65
2023/01/07 13:14:53;;;;;;;47.17;9.70;;;;;;;;;;4987917;28;20427;-66
2023/01/07 13:17:27;;;;;;;19.27;7.47;;;;;;;;;;4988172;28;20885;-67
2023/01/07 13:19:53;;;;;;;44.73;10.47;;;;;;;;;;5000552;28;20462;-66
2023/01/07 13:22:39;;;;;;;25.07;7.40;;;;;;;;;;5009892;28;20395;-65
2023/01/07 13:25:14;;;;;;;15.83;6.53;;;;;;;;;;5010381;28;20467;-67
2023/01/07 13:28:07;;;;;;;13.40;7.27;;;;;;;;;;5010489;28;20426;-68
2023/01/07 13:30:41;;;;;;;7.57;6.17;;;;;;;;;;5020317;28;20406;-65
2023/01/07 13:33:23;;;;;;;11.83;6.23;;;;;;;;;;5029373;28;20559;-66
2023/01/07 13:35:58;;;;;;;8.67;6.50;;;;;;;;;;5029830;28;20495;-65
2023/01/07 13:38:46;;;;;;;7.57;6.80;;;;;;;;;;5029672;28;20886;-65
2023/01/07 13:41:36;;;;;;;14.03;7.20;;;;;;;;;;5028971;28;20497;-64
2023/01/07 13:44:23;;;;;;;19.53;7.30;;;;;;;;;;5029408;28;20476;-66
2023/01/07 13:46:49;;;;;;;9.77;6.67;;;;;;;;;;5029549;28;20471;-66
2023/01/07 13:49:32;;;;;;;13.17;5.90;;;;;;;;;;5030496;28;20410;-66
2023/01/07 13:52:18;;;;;;;23.80;8.77;;;;;;;;;;5029043;28;20945;-66
2023/01/07 13:54:49;;;;;;;8.60;6.03;;;;;;;;;;5029516;28;20487;-66
2023/01/07 13:57:30;;;;;;;9.63;6.70;;;;;;;;;;5030122;28;20413;-65
2023/01/07 14:00:00;;;;;;;17.17;7.60;;;;;;;;;;5028954;28;20461;-65
2023/01/07 14:02:28;;;;;;;19.37;7.47;;;;;;;;;;5028290;28;20414;-65
2023/01/07 14:05:05;;;;;;;75.40;11.50;;;;;;;;;;5029409;28;20422;-65
2023/01/07 14:07:41;;;;;;;25.40;8.83;;;;;;;;;;5015721;28;20417;-66
2023/01/07 14:10:36;;;;;;;15.80;7.00;;;;;;;;;;5009768;28;20419;-65
2023/01/07 14:13:19;;;;;;;11.60;6.60;;;;;;;;;;5008374;28;20438;-66
2023/01/07 14:15:53;;;;;;;26.53;8.73;;;;;;;;;;5009733;28;20938;-64
2023/01/07 14:18:50;;;;;;;20.13;7.00;;;;;;;;;;5009132;28;20415;-65
2023/01/07 14:21:43;;;;;;;9.37;6.90;;;;;;;;;;5008782;28;20403;-65
2023/01/07 14:24:19;;;;;;;17.13;7.40;;;;;;;;;;5010028;28;20531;-66
2023/01/07 14:26:57;;;;;;;24.80;8.07;;;;;;;;;;5009496;28;20458;-66
2023/01/07 14:29:46;;;;;;;13.37;5.90;;;;;;;;;;5010885;28;20414;-66
2023/01/07 14:32:33;;;;;;;12.47;7.60;;;;;;;;;;5028306;28;20419;-66
2023/01/07 14:35:06;;;;;;;28.37;7.30;;;;;;;;;;5029087;28;20476;-65
2023/01/07 14:37:35;;;;;;;33.87;8.77;;;;;;;;;;5029237;28;20414;-65
2023/01/07 14:40:31;;;;;;;15.33;7.53;;;;;;;;;;5029228;28;20466;-67
2023/01/07 14:43:01;;;;;;;17.43;8.00;;;;;;;;;;5028758;28;20577;-67
2023/01/07 14:45:36;;;;;;;10.00;6.60;;;;;;;;;;5029382;28;20445;-66
2023/01/07 14:48:31;;;;;;;13.10;6.60;;;;;;;;;;5028575;28;20428;-66
2023/01/07 14:51:30;;;;;;;12.23;6.10;;;;;;;;;;5028401;28;20440;-66
2023/01/07 14:54:02;;;;;;;43.80;9.40;;;;;;;;;;5028889;28;20440;-67
2023/01/07 14:56:31;;;;;;;28.97;8.70;;;;;;;;;;5011536;28;20453;-66
2023/01/07 14:59:02;;;;;;;12.17;6.80;;;;;;;;;;5028521;28;20465;-66
2023/01/07 15:01:53;;;;;;;13.40;7.50;;;;;;;;;;5028185;28;20422;-66
2023/01/07 15:04:50;;;;;;;5.87;5.37;;;;;;;;;;5029177;28;20390;-66
2023/01/07 15:07:19;;;;;;;50.07;11.20;;;;;;;;;;5021297;28;20449;-66